sensor_id;sensor_type;location;lat;lon;timestamp;P1;durP1;ratioP1;P2;durP2;ratioP2
40537;SDS011;27925;41.874;12.526;2023-04-01T00:01:35;20.30;;;5.03;;
40537;SDS011;27925;41.874;12.526;2023-04-01T00:04:00;24.60;;;5.53;;
40537;SDS011;27925;41.874;12.526;2023-04-01T00:06:27;21.33;;;5.03;;
40537;SDS011;27925;41.874;12.526;2023-04-01T00:08:53;22.02;;;5.43;;
40537;SDS011;27925;41.874;12.526;2023-04-01T00:11:19;19.67;;;5.15;;
40537;SDS011;27925;41.874;12.526;2023-04-01T00:13:46;23.17;;;5.45;;
40537;SDS011;27925;41.874;12.526;2023-04-01T00:16:12;17.60;;;5.28;;
40537;SDS011;27925;41.874;12.526;2023-04-01T00:18:39;20.17;;;5.60;;
40537;SDS011;27925;41.874;12.526;2023-04-01T00:21:05;22.55;;;5.88;;
40537;SDS011;27925;41.874;12.526;2023-04-01T00:23:31;23.73;;;5.40;;
40537;SDS011;27925;41.874;12.526;2023-04-01T00:25:59;22.20;;;6.20;;
40537;SDS011;27925;41.874;12.526;2023-04-01T00:28:26;22.20;;;5.88;;
40537;SDS011;27925;41.874;12.526;2023-04-01T00:30:52;22.25;;;5.50;;
40537;SDS011;27925;41.874;12.526;2023-04-01T00:33:18;24.38;;;5.75;;
40537;SDS011;27925;41.874;12.526;2023-04-01T00:35:44;18.80;;;5.57;;
40537;SDS011;27925;41.874;12.526;2023-04-01T00:38:10;25.52;;;5.93;;
40537;SDS011;27925;41.874;12.526;2023-04-01T00:40:44;23.02;;;6.50;;
40537;SDS011;27925;41.874;12.526;2023-04-01T00:43:18;22.55;;;5.90;;
40537;SDS011;27925;41.874;12.526;2023-04-01T00:45:45;23.10;;;6.10;;
40537;SDS011;27925;41.874;12.526;2023-04-01T00:50:57;21.67;;;4.65;;
40537;SDS011;27925;41.874;12.526;2023-04-01T00:53:33;23.98;;;6.55;;
40537;SDS011;27925;41.874;12.526;2023-04-01T00:56:05;24.63;;;5.63;;
40537;SDS011;27925;41.874;12.526;2023-04-01T00:58:40;21.80;;;5.03;;
40537;SDS011;27925;41.874;12.526;2023-04-01T01:01:09;26.27;;;5.90;;
40537;SDS011;27925;41.874;12.526;2023-04-01T01:03:35;25.30;;;6.70;;
40537;SDS011;27925;41.874;12.526;2023-04-01T01:08:37;22.75;;;6.07;;
40537;SDS011;27925;41.874;12.526;2023-04-01T01:11:12;21.75;;;6.18;;
40537;SDS011;27925;41.874;12.526;2023-04-01T01:24:27;24.70;;;6.43;;
40537;SDS011;27925;41.874;12.526;2023-04-01T01:27:02;22.17;;;7.03;;
40537;SDS011;27925;41.874;12.526;2023-04-01T01:38:11;30.73;;;6.65;;
40537;SDS011;27925;41.874;12.526;2023-04-01T01:40:41;25.25;;;6.18;;
40537;SDS011;27925;41.874;12.526;2023-04-01T01:43:11;33.22;;;6.75;;
40537;SDS011;27925;41.874;12.526;2023-04-01T01:45:40;23.55;;;6.20;;
40537;SDS011;27925;41.874;12.526;2023-04-01T01:48:17;22.50;;;6.15;;
40537;SDS011;27925;41.874;12.526;2023-04-01T01:50:45;31.80;;;7.18;;
40537;SDS011;27925;41.874;12.526;2023-04-01T01:53:12;24.63;;;5.85;;
40537;SDS011;27925;41.874;12.526;2023-04-01T01:55:46;32.13;;;7.75;;
40537;SDS011;27925;41.874;12.526;2023-04-01T02:00:53;31.55;;;7.25;;
40537;SDS011;27925;41.874;12.526;2023-04-01T02:03:30;23.73;;;7.10;;
40537;SDS011;27925;41.874;12.526;2023-04-01T02:06:01;23.30;;;6.57;;
40537;SDS011;27925;41.874;12.526;2023-04-01T02:08:35;30.10;;;6.97;;
40537;SDS011;27925;41.874;12.526;2023-04-01T02:11:08;28.35;;;7.18;;
40537;SDS011;27925;41.874;12.526;2023-04-01T02:16:40;28.27;;;7.88;;
40537;SDS011;27925;41.874;12.526;2023-04-01T02:19:13;26.98;;;7.63;;
40537;SDS011;27925;41.874;12.526;2023-04-01T02:21:47;27.98;;;7.82;;
40537;SDS011;27925;41.874;12.526;2023-04-01T02:24:16;30.23;;;7.75;;
40537;SDS011;27925;41.874;12.526;2023-04-01T02:26:46;32.80;;;8.25;;
40537;SDS011;27925;41.874;12.526;2023-04-01T02:29:12;28.88;;;7.43;;
40537;SDS011;27925;41.874;12.526;2023-04-01T02:31:39;26.98;;;7.75;;
40537;SDS011;27925;41.874;12.526;2023-04-01T02:34:06;30.30;;;8.18;;
40537;SDS011;27925;41.874;12.526;2023-04-01T02:36:32;30.95;;;8.65;;
40537;SDS011;27925;41.874;12.526;2023-04-01T02:39:01;26.35;;;7.47;;
40537;SDS011;27925;41.874;12.526;2023-04-01T02:41:29;26.88;;;7.93;;
40537;SDS011;27925;41.874;12.526;2023-04-01T02:43:55;27.60;;;8.43;;
40537;SDS011;27925;41.874;12.526;2023-04-01T02:46:23;29.35;;;7.50;;
40537;SDS011;27925;41.874;12.526;2023-04-01T02:48:49;28.35;;;7.95;;
40537;SDS011;27925;41.874;12.526;2023-04-01T02:51:15;39.15;;;8.68;;
40537;SDS011;27925;41.874;12.526;2023-04-01T02:53:41;32.80;;;9.13;;
40537;SDS011;27925;41.874;12.526;2023-04-01T02:56:06;27.77;;;8.48;;
40537;SDS011;27925;41.874;12.526;2023-04-01T02:58:32;29.80;;;8.35;;
40537;SDS011;27925;41.874;12.526;2023-04-01T03:00:58;33.05;;;8.20;;
40537;SDS011;27925;41.874;12.526;2023-04-01T03:03:23;30.00;;;7.55;;
40537;SDS011;27925;41.874;12.526;2023-04-01T03:05:49;28.40;;;8.48;;
40537;SDS011;27925;41.874;12.526;2023-04-01T03:08:15;30.85;;;8.23;;
40537;SDS011;27925;41.874;12.526;2023-04-01T03:10:41;35.08;;;9.13;;
40537;SDS011;27925;41.874;12.526;2023-04-01T03:13:06;31.15;;;7.95;;
40537;SDS011;27925;41.874;12.526;2023-04-01T03:15:32;26.30;;;8.07;;
40537;SDS011;27925;41.874;12.526;2023-04-01T03:17:58;35.15;;;9.15;;
40537;SDS011;27925;41.874;12.526;2023-04-01T03:20:23;26.55;;;8.80;;
40537;SDS011;27925;41.874;12.526;2023-04-01T03:22:49;28.02;;;9.18;;
40537;SDS011;27925;41.874;12.526;2023-04-01T03:25:15;37.17;;;9.25;;
40537;SDS011;27925;41.874;12.526;2023-04-01T03:27:41;32.47;;;7.80;;
40537;SDS011;27925;41.874;12.526;2023-04-01T03:30:06;29.08;;;8.85;;
40537;SDS011;27925;41.874;12.526;2023-04-01T03:32:33;27.15;;;8.38;;
40537;SDS011;27925;41.874;12.526;2023-04-01T03:34:58;29.63;;;7.80;;
40537;SDS011;27925;41.874;12.526;2023-04-01T03:37:24;31.58;;;8.82;;
40537;SDS011;27925;41.874;12.526;2023-04-01T03:39:50;25.55;;;8.10;;
40537;SDS011;27925;41.874;12.526;2023-04-01T03:42:16;29.38;;;8.52;;
40537;SDS011;27925;41.874;12.526;2023-04-01T03:44:42;32.17;;;9.02;;
40537;SDS011;27925;41.874;12.526;2023-04-01T03:47:07;35.53;;;8.57;;
40537;SDS011;27925;41.874;12.526;2023-04-01T03:49:34;27.45;;;9.13;;
40537;SDS011;27925;41.874;12.526;2023-04-01T03:52:00;30.73;;;8.93;;
40537;SDS011;27925;41.874;12.526;2023-04-01T03:54:26;25.48;;;8.95;;
40537;SDS011;27925;41.874;12.526;2023-04-01T03:56:51;30.33;;;8.82;;
40537;SDS011;27925;41.874;12.526;2023-04-01T03:59:17;35.80;;;10.00;;
40537;SDS011;27925;41.874;12.526;2023-04-01T04:01:43;30.48;;;9.27;;
40537;SDS011;27925;41.874;12.526;2023-04-01T04:04:11;38.67;;;10.40;;
40537;SDS011;27925;41.874;12.526;2023-04-01T04:06:38;36.08;;;9.27;;
40537;SDS011;27925;41.874;12.526;2023-04-01T04:09:04;32.15;;;9.30;;
40537;SDS011;27925;41.874;12.526;2023-04-01T04:11:30;33.28;;;9.50;;
40537;SDS011;27925;41.874;12.526;2023-04-01T04:13:57;36.38;;;8.98;;
40537;SDS011;27925;41.874;12.526;2023-04-01T04:16:23;32.30;;;10.52;;
40537;SDS011;27925;41.874;12.526;2023-04-01T04:18:49;31.52;;;9.18;;
40537;SDS011;27925;41.874;12.526;2023-04-01T04:21:16;29.52;;;9.15;;
40537;SDS011;27925;41.874;12.526;2023-04-01T04:23:42;29.00;;;8.65;;
40537;SDS011;27925;41.874;12.526;2023-04-01T04:26:09;29.70;;;9.13;;
40537;SDS011;27925;41.874;12.526;2023-04-01T04:28:37;35.30;;;9.95;;
40537;SDS011;27925;41.874;12.526;2023-04-01T04:31:03;31.65;;;9.45;;
40537;SDS011;27925;41.874;12.526;2023-04-01T04:33:30;34.95;;;9.40;;
40537;SDS011;27925;41.874;12.526;2023-04-01T04:35:57;31.52;;;9.05;;
40537;SDS011;27925;41.874;12.526;2023-04-01T04:38:23;31.85;;;9.98;;
40537;SDS011;27925;41.874;12.526;2023-04-01T04:40:50;32.50;;;10.13;;
40537;SDS011;27925;41.874;12.526;2023-04-01T04:43:16;29.48;;;9.40;;
40537;SDS011;27925;41.874;12.526;2023-04-01T04:45:43;35.22;;;9.32;;
40537;SDS011;27925;41.874;12.526;2023-04-01T04:48:10;31.15;;;9.20;;
40537;SDS011;27925;41.874;12.526;2023-04-01T04:53:10;32.80;;;8.85;;
40537;SDS011;27925;41.874;12.526;2023-04-01T04:55:36;31.55;;;9.45;;
40537;SDS011;27925;41.874;12.526;2023-04-01T04:58:02;38.55;;;8.85;;
40537;SDS011;27925;41.874;12.526;2023-04-01T05:00:27;36.53;;;11.00;;
40537;SDS011;27925;41.874;12.526;2023-04-01T05:02:53;29.13;;;9.40;;
40537;SDS011;27925;41.874;12.526;2023-04-01T05:05:19;33.15;;;10.07;;
40537;SDS011;27925;41.874;12.526;2023-04-01T05:07:45;32.88;;;9.90;;
40537;SDS011;27925;41.874;12.526;2023-04-01T05:10:10;33.90;;;9.73;;
40537;SDS011;27925;41.874;12.526;2023-04-01T05:12:36;36.67;;;9.60;;
40537;SDS011;27925;41.874;12.526;2023-04-01T05:15:06;34.97;;;8.95;;
40537;SDS011;27925;41.874;12.526;2023-04-01T05:17:33;35.38;;;9.70;;
40537;SDS011;27925;41.874;12.526;2023-04-01T05:19:58;37.85;;;8.85;;
40537;SDS011;27925;41.874;12.526;2023-04-01T05:22:24;40.33;;;10.25;;
40537;SDS011;27925;41.874;12.526;2023-04-01T05:24:51;38.03;;;9.98;;
40537;SDS011;27925;41.874;12.526;2023-04-01T05:27:16;40.20;;;9.55;;
40537;SDS011;27925;41.874;12.526;2023-04-01T05:29:42;37.55;;;9.40;;
40537;SDS011;27925;41.874;12.526;2023-04-01T05:32:08;36.90;;;8.80;;
40537;SDS011;27925;41.874;12.526;2023-04-01T05:34:33;30.17;;;8.95;;
40537;SDS011;27925;41.874;12.526;2023-04-01T05:36:59;34.75;;;9.40;;
40537;SDS011;27925;41.874;12.526;2023-04-01T05:39:25;36.25;;;9.05;;
40537;SDS011;27925;41.874;12.526;2023-04-01T05:41:51;32.00;;;9.55;;
40537;SDS011;27925;41.874;12.526;2023-04-01T05:44:17;34.00;;;9.82;;
40537;SDS011;27925;41.874;12.526;2023-04-01T05:46:42;33.67;;;9.73;;
40537;SDS011;27925;41.874;12.526;2023-04-01T05:49:08;39.20;;;10.00;;
40537;SDS011;27925;41.874;12.526;2023-04-01T05:51:34;35.05;;;9.55;;
40537;SDS011;27925;41.874;12.526;2023-04-01T05:53:59;38.10;;;10.18;;
40537;SDS011;27925;41.874;12.526;2023-04-01T05:56:25;35.50;;;10.15;;
40537;SDS011;27925;41.874;12.526;2023-04-01T05:58:51;47.35;;;10.38;;
40537;SDS011;27925;41.874;12.526;2023-04-01T06:01:18;28.45;;;8.02;;
40537;SDS011;27925;41.874;12.526;2023-04-01T06:03:44;34.90;;;9.73;;
40537;SDS011;27925;41.874;12.526;2023-04-01T06:06:14;33.65;;;9.82;;
40537;SDS011;27925;41.874;12.526;2023-04-01T06:08:51;30.60;;;8.55;;
40537;SDS011;27925;41.874;12.526;2023-04-01T06:25:39;35.80;;;9.73;;
40537;SDS011;27925;41.874;12.526;2023-04-01T06:36:57;22.42;;;8.55;;
40537;SDS011;27925;41.874;12.526;2023-04-01T06:39:48;23.85;;;7.57;;
40537;SDS011;27925;41.874;12.526;2023-04-01T06:42:37;26.55;;;7.88;;
40537;SDS011;27925;41.874;12.526;2023-04-01T06:53:17;23.05;;;6.85;;
40537;SDS011;27925;41.874;12.526;2023-04-01T06:55:59;29.75;;;9.55;;
40537;SDS011;27925;41.874;12.526;2023-04-01T06:58:39;33.00;;;10.60;;
40537;SDS011;27925;41.874;12.526;2023-04-01T07:01:08;26.98;;;7.95;;
40537;SDS011;27925;41.874;12.526;2023-04-01T07:03:49;27.50;;;7.30;;
40537;SDS011;27925;41.874;12.526;2023-04-01T07:06:36;24.55;;;7.18;;
40537;SDS011;27925;41.874;12.526;2023-04-01T07:09:26;27.95;;;8.15;;
40537;SDS011;27925;41.874;12.526;2023-04-01T07:12:04;25.40;;;7.43;;
40537;SDS011;27925;41.874;12.526;2023-04-01T07:14:37;26.02;;;6.75;;
40537;SDS011;27925;41.874;12.526;2023-04-01T07:17:14;27.75;;;7.95;;
40537;SDS011;27925;41.874;12.526;2023-04-01T07:20:16;29.63;;;6.82;;
40537;SDS011;27925;41.874;12.526;2023-04-01T07:22:56;19.90;;;5.03;;
40537;SDS011;27925;41.874;12.526;2023-04-01T07:25:29;20.63;;;5.15;;
40537;SDS011;27925;41.874;12.526;2023-04-01T07:28:19;22.73;;;5.03;;
40537;SDS011;27925;41.874;12.526;2023-04-01T07:33:27;12.43;;;3.42;;
40537;SDS011;27925;41.874;12.526;2023-04-01T07:39:23;16.95;;;4.63;;
40537;SDS011;27925;41.874;12.526;2023-04-01T07:42:05;19.20;;;4.20;;
40537;SDS011;27925;41.874;12.526;2023-04-01T07:44:38;16.00;;;4.50;;
40537;SDS011;27925;41.874;12.526;2023-04-01T07:47:39;18.73;;;4.05;;
40537;SDS011;27925;41.874;12.526;2023-04-01T07:53:36;20.40;;;6.30;;
40537;SDS011;27925;41.874;12.526;2023-04-01T08:07:08;18.13;;;4.65;;
40537;SDS011;27925;41.874;12.526;2023-04-01T08:23:00;18.23;;;4.30;;
40537;SDS011;27925;41.874;12.526;2023-04-01T08:25:38;16.17;;;4.13;;
40537;SDS011;27925;41.874;12.526;2023-04-01T08:28:11;17.10;;;3.80;;
40537;SDS011;27925;41.874;12.526;2023-04-01T08:30:47;20.77;;;4.32;;
40537;SDS011;27925;41.874;12.526;2023-04-01T08:35:51;15.93;;;3.83;;
40537;SDS011;27925;41.874;12.526;2023-04-01T08:38:29;10.63;;;2.90;;
40537;SDS011;27925;41.874;12.526;2023-04-01T08:53:12;19.20;;;4.35;;
40537;SDS011;27925;41.874;12.526;2023-04-01T09:09:50;15.70;;;3.33;;
40537;SDS011;27925;41.874;12.526;2023-04-01T09:44:35;15.80;;;3.33;;
40537;SDS011;27925;41.874;12.526;2023-04-01T10:51:01;15.75;;;3.80;;
40537;SDS011;27925;41.874;12.526;2023-04-01T11:17:06;14.25;;;3.35;;
40537;SDS011;27925;41.874;12.526;2023-04-01T11:39:17;15.50;;;4.22;;
40537;SDS011;27925;41.874;12.526;2023-04-01T11:42:11;18.13;;;3.85;;
40537;SDS011;27925;41.874;12.526;2023-04-01T12:02:14;18.40;;;3.88;;
40537;SDS011;27925;41.874;12.526;2023-04-01T12:12:54;18.80;;;4.10;;
40537;SDS011;27925;41.874;12.526;2023-04-01T12:18:41;19.95;;;4.30;;
40537;SDS011;27925;41.874;12.526;2023-04-01T12:26:43;18.67;;;3.85;;
40537;SDS011;27925;41.874;12.526;2023-04-01T12:34:33;22.73;;;4.28;;
40537;SDS011;27925;41.874;12.526;2023-04-01T12:37:22;16.25;;;4.00;;
40537;SDS011;27925;41.874;12.526;2023-04-01T12:42:48;15.18;;;3.63;;
40537;SDS011;27925;41.874;12.526;2023-04-01T12:56:08;12.65;;;2.88;;
40537;SDS011;27925;41.874;12.526;2023-04-01T12:58:53;13.55;;;3.53;;
40537;SDS011;27925;41.874;12.526;2023-04-01T13:04:12;16.77;;;4.03;;
40537;SDS011;27925;41.874;12.526;2023-04-01T13:07:14;19.38;;;3.95;;
40537;SDS011;27925;41.874;12.526;2023-04-01T13:20:53;14.65;;;3.55;;
40537;SDS011;27925;41.874;12.526;2023-04-01T13:26:34;13.18;;;3.45;;
40537;SDS011;27925;41.874;12.526;2023-04-01T13:29:40;14.30;;;3.42;;
40537;SDS011;27925;41.874;12.526;2023-04-01T13:43:16;12.60;;;2.87;;
40537;SDS011;27925;41.874;12.526;2023-04-01T13:56:48;14.50;;;3.55;;
40537;SDS011;27925;41.874;12.526;2023-04-01T13:59:37;18.00;;;3.65;;
40537;SDS011;27925;41.874;12.526;2023-04-01T14:08:33;14.32;;;4.75;;
40537;SDS011;27925;41.874;12.526;2023-04-01T14:14:21;13.07;;;3.35;;
40537;SDS011;27925;41.874;12.526;2023-04-01T14:27:41;16.23;;;3.45;;
40537;SDS011;27925;41.874;12.526;2023-04-01T14:30:31;17.55;;;3.90;;
40537;SDS011;27925;41.874;12.526;2023-04-01T14:33:24;20.60;;;3.67;;
40537;SDS011;27925;41.874;12.526;2023-04-01T14:39:15;13.88;;;3.25;;
40537;SDS011;27925;41.874;12.526;2023-04-01T14:42:08;14.02;;;3.70;;
40537;SDS011;27925;41.874;12.526;2023-04-01T14:44:57;15.95;;;3.60;;
40537;SDS011;27925;41.874;12.526;2023-04-01T14:47:47;17.50;;;5.25;;
40537;SDS011;27925;41.874;12.526;2023-04-01T14:50:23;20.65;;;4.03;;
40537;SDS011;27925;41.874;12.526;2023-04-01T14:55:34;13.40;;;3.45;;
40537;SDS011;27925;41.874;12.526;2023-04-01T14:58:09;18.58;;;3.70;;
40537;SDS011;27925;41.874;12.526;2023-04-01T15:08:21;16.73;;;4.38;;
40537;SDS011;27925;41.874;12.526;2023-04-01T15:19:21;25.55;;;4.10;;
40537;SDS011;27925;41.874;12.526;2023-04-01T15:28:07;20.05;;;4.97;;
40537;SDS011;27925;41.874;12.526;2023-04-01T15:41:34;20.23;;;4.38;;
40537;SDS011;27925;41.874;12.526;2023-04-01T15:46:53;15.95;;;3.67;;
40537;SDS011;27925;41.874;12.526;2023-04-01T15:49:36;19.80;;;4.45;;
40537;SDS011;27925;41.874;12.526;2023-04-01T16:00:48;19.38;;;3.90;;
40537;SDS011;27925;41.874;12.526;2023-04-01T16:06:28;23.83;;;4.40;;
40537;SDS011;27925;41.874;12.526;2023-04-01T16:11:46;19.33;;;4.13;;
40537;SDS011;27925;41.874;12.526;2023-04-01T16:19:48;17.42;;;3.60;;
40537;SDS011;27925;41.874;12.526;2023-04-01T16:22:27;18.42;;;3.85;;
40537;SDS011;27925;41.874;12.526;2023-04-01T16:25:20;14.32;;;3.67;;
40537;SDS011;27925;41.874;12.526;2023-04-01T16:38:41;16.45;;;3.90;;
40537;SDS011;27925;41.874;12.526;2023-04-01T16:43:50;14.75;;;3.70;;
40537;SDS011;27925;41.874;12.526;2023-04-01T16:46:41;17.63;;;4.00;;
40537;SDS011;27925;41.874;12.526;2023-04-01T16:56:53;19.50;;;4.28;;
40537;SDS011;27925;41.874;12.526;2023-04-01T16:59:27;19.92;;;4.60;;
40537;SDS011;27925;41.874;12.526;2023-04-01T17:18:14;14.60;;;4.38;;
40537;SDS011;27925;41.874;12.526;2023-04-01T17:21:05;19.00;;;5.30;;
40537;SDS011;27925;41.874;12.526;2023-04-01T17:23:42;20.43;;;7.00;;
40537;SDS011;27925;41.874;12.526;2023-04-01T17:26:20;19.15;;;4.70;;
40537;SDS011;27925;41.874;12.526;2023-04-01T17:29:09;17.48;;;4.53;;
40537;SDS011;27925;41.874;12.526;2023-04-01T17:32:11;15.38;;;4.50;;
40537;SDS011;27925;41.874;12.526;2023-04-01T17:37:33;18.55;;;3.60;;
40537;SDS011;27925;41.874;12.526;2023-04-01T17:45:46;15.90;;;4.28;;
40537;SDS011;27925;41.874;12.526;2023-04-01T17:59:47;22.35;;;5.15;;
40537;SDS011;27925;41.874;12.526;2023-04-01T18:07:59;16.60;;;3.67;;
40537;SDS011;27925;41.874;12.526;2023-04-01T18:13:32;18.75;;;4.85;;
40537;SDS011;27925;41.874;12.526;2023-04-01T18:22:15;16.67;;;4.38;;
40537;SDS011;27925;41.874;12.526;2023-04-01T18:24:45;14.85;;;4.40;;
40537;SDS011;27925;41.874;12.526;2023-04-01T18:27:23;15.93;;;4.88;;
40537;SDS011;27925;41.874;12.526;2023-04-01T18:30:54;20.02;;;4.90;;
40537;SDS011;27925;41.874;12.526;2023-04-01T18:41:14;19.08;;;4.55;;
40537;SDS011;27925;41.874;12.526;2023-04-01T18:46:30;23.63;;;5.47;;
40537;SDS011;27925;41.874;12.526;2023-04-01T18:49:05;24.23;;;6.35;;
40537;SDS011;27925;41.874;12.526;2023-04-01T18:51:52;20.80;;;5.63;;
40537;SDS011;27925;41.874;12.526;2023-04-01T18:54:40;17.48;;;5.55;;
40537;SDS011;27925;41.874;12.526;2023-04-01T18:57:16;20.50;;;7.60;;
40537;SDS011;27925;41.874;12.526;2023-04-01T19:05:08;28.35;;;10.13;;
40537;SDS011;27925;41.874;12.526;2023-04-01T19:21:23;35.00;;;9.65;;
40537;SDS011;27925;41.874;12.526;2023-04-01T19:24:07;39.83;;;10.35;;
40537;SDS011;27925;41.874;12.526;2023-04-01T19:38:05;25.05;;;7.22;;
40537;SDS011;27925;41.874;12.526;2023-04-01T19:40:41;24.67;;;6.00;;
40537;SDS011;27925;41.874;12.526;2023-04-01T19:46:07;25.58;;;6.78;;
40537;SDS011;27925;41.874;12.526;2023-04-01T19:59:53;29.95;;;8.02;;
40537;SDS011;27925;41.874;12.526;2023-04-01T20:05:28;31.42;;;8.93;;
40537;SDS011;27925;41.874;12.526;2023-04-01T20:08:45;34.60;;;7.70;;
40537;SDS011;27925;41.874;12.526;2023-04-01T20:19:36;25.80;;;7.20;;
40537;SDS011;27925;41.874;12.526;2023-04-01T20:36:34;26.83;;;7.53;;
40537;SDS011;27925;41.874;12.526;2023-04-01T20:39:15;32.85;;;7.80;;
40537;SDS011;27925;41.874;12.526;2023-04-01T20:55:27;36.58;;;8.57;;
40537;SDS011;27925;41.874;12.526;2023-04-01T20:58:24;33.20;;;7.97;;
40537;SDS011;27925;41.874;12.526;2023-04-01T21:18:12;34.38;;;7.82;;
40537;SDS011;27925;41.874;12.526;2023-04-01T21:20:54;26.88;;;6.75;;
40537;SDS011;27925;41.874;12.526;2023-04-01T21:23:41;39.80;;;7.70;;
40537;SDS011;27925;41.874;12.526;2023-04-01T21:26:19;35.00;;;8.65;;
40537;SDS011;27925;41.874;12.526;2023-04-01T21:31:37;37.53;;;8.10;;
40537;SDS011;27925;41.874;12.526;2023-04-01T22:00:08;40.35;;;8.25;;
40537;SDS011;27925;41.874;12.526;2023-04-01T22:16:39;39.90;;;9.53;;
40537;SDS011;27925;41.874;12.526;2023-04-01T22:27:49;43.85;;;9.93;;
40537;SDS011;27925;41.874;12.526;2023-04-01T22:30:31;31.10;;;9.50;;
40537;SDS011;27925;41.874;12.526;2023-04-01T22:33:06;33.75;;;10.38;;
40537;SDS011;27925;41.874;12.526;2023-04-01T22:43:50;35.25;;;9.70;;
40537;SDS011;27925;41.874;12.526;2023-04-01T22:46:29;43.20;;;9.80;;
40537;SDS011;27925;41.874;12.526;2023-04-01T22:54:36;34.88;;;8.63;;
40537;SDS011;27925;41.874;12.526;2023-04-01T22:57:10;39.72;;;10.00;;
40537;SDS011;27925;41.874;12.526;2023-04-01T23:02:26;39.25;;;9.55;;
40537;SDS011;27925;41.874;12.526;2023-04-01T23:04:56;33.90;;;9.40;;
40537;SDS011;27925;41.874;12.526;2023-04-01T23:13:19;38.05;;;9.90;;
40537;SDS011;27925;41.874;12.526;2023-04-01T23:15:52;38.92;;;8.15;;
40537;SDS011;27925;41.874;12.526;2023-04-01T23:19:06;46.03;;;9.73;;
40537;SDS011;27925;41.874;12.526;2023-04-01T23:21:26;42.05;;;9.20;;
40537;SDS011;27925;41.874;12.526;2023-04-01T23:24:19;42.42;;;8.82;;
40537;SDS011;27925;41.874;12.526;2023-04-01T23:29:44;29.63;;;8.05;;
40537;SDS011;27925;41.874;12.526;2023-04-01T23:32:14;37.88;;;8.60;;
40537;SDS011;27925;41.874;12.526;2023-04-01T23:34:46;36.72;;;8.00;;
40537;SDS011;27925;41.874;12.526;2023-04-01T23:37:14;35.53;;;8.27;;
40537;SDS011;27925;41.874;12.526;2023-04-01T23:39:43;34.13;;;7.68;;
40537;SDS011;27925;41.874;12.526;2023-04-01T23:42:29;29.55;;;7.47;;
40537;SDS011;27925;41.874;12.526;2023-04-01T23:45:11;39.95;;;8.32;;
40537;SDS011;27925;41.874;12.526;2023-04-01T23:47:42;35.03;;;7.35;;
40537;SDS011;27925;41.874;12.526;2023-04-01T23:50:11;33.70;;;8.27;;
40537;SDS011;27925;41.874;12.526;2023-04-01T23:52:48;33.92;;;8.13;;
40537;SDS011;27925;41.874;12.526;2023-04-01T23:55:19;37.95;;;7.75;;
